Time;durP1;ratioP1;P1;durP2;ratioP2;P2;SDS_P1;SDS_P2;PMS_P1;PMS_P2;Temp;Humidity;BMP_temperature;BMP_pressure;BME280_temperature;BME280_humidity;BME280_pressure;Samples;Min_cycle;Max_cycle;Signal;HPM_P1;HPM_P2
2021/11/04 00:19:07;;;;;;;;;;;23.10;47.10;;;;;;1560469;75;1696;-71
2021/11/04 00:21:09;;;;;;;;;;;23.10;47.00;;;;;;1552535;75;829;-70
2021/11/04 00:23:11;;;;;;;;;;;23.10;47.00;;;;;;1572813;75;792;-71
2021/11/04 00:25:13;;;;;;;;;;;23.10;47.00;;;;;;1562929;75;1188;-72
2021/11/04 00:27:15;;;;;;;;;;;23.20;47.00;;;;;;1552409;75;777;-78
2021/11/04 00:29:17;;;;;;;;;;;23.10;46.90;;;;;;1572815;75;1943;-72
2021/11/04 00:31:19;;;;;;;;;;;23.10;46.90;;;;;;1551853;75;736;-73
2021/11/04 00:33:20;;;;;;;;;;;23.10;47.00;;;;;;1571529;75;785;-72
2021/11/04 00:35:22;;;;;;;;;;;23.10;47.00;;;;;;1555621;75;1143;-71
2021/11/04 00:37:24;;;;;;;;;;;23.10;47.00;;;;;;1557397;75;817;-71
2021/11/04 00:39:26;;;;;;;;;;;23.10;47.00;;;;;;1566898;74;789;-71
2021/11/04 00:41:28;;;;;;;;;;;23.10;46.90;;;;;;1551408;75;774;-71
2021/11/04 00:43:30;;;;;;;;;;;23.10;47.10;;;;;;1578104;75;743;-71
2021/11/04 00:45:32;;;;;;;;;;;23.00;46.90;;;;;;1547739;75;1139;-73
2021/11/04 00:47:33;;;;;;;;;;;23.00;47.00;;;;;;1552429;75;675;-74
2021/11/04 00:49:35;;;;;;;;;;;23.00;46.90;;;;;;1557372;75;1954;-71
2021/11/04 00:51:38;;;;;;;;;;;23.00;47.00;;;;;;1574606;75;799;-71
2021/11/04 00:53:40;;;;;;;;;;;23.00;47.00;;;;;;1569355;75;812;-70
2021/11/04 00:55:41;;;;;;;;;;;23.10;47.10;;;;;;1575529;75;1103;-70
2021/11/04 00:57:43;;;;;;;;;;;23.00;47.00;;;;;;1566948;75;771;-71
2021/11/04 00:59:45;;;;;;;;;;;23.00;47.00;;;;;;1561220;75;766;-71
2021/11/04 01:01:47;;;;;;;;;;;23.10;47.10;;;;;;1574551;75;703;-70
2021/11/04 01:03:49;;;;;;;;;;;23.10;47.10;;;;;;1558059;75;728;-70
2021/11/04 01:05:51;;;;;;;;;;;23.00;47.10;;;;;;1563016;75;1224;-71
2021/11/04 01:07:54;;;;;;;;;;;23.10;47.20;;;;;;1567444;75;789;-71
2021/11/04 01:09:56;;;;;;;;;;;23.00;47.10;;;;;;1552626;75;726;-70
2021/11/04 01:11:58;;;;;;;;;;;23.10;47.20;;;;;;1556406;75;762;-72
2021/11/04 01:13:59;;;;;;;;;;;23.00;47.10;;;;;;1568226;75;685;-75
2021/11/04 01:16:01;;;;;;;;;;;23.10;47.20;;;;;;1567463;75;1126;-74
2021/11/04 01:18:03;;;;;;;;;;;23.00;47.10;;;;;;1565848;75;800;-73
2021/11/04 01:20:06;;;;;;;;;;;23.10;47.10;;;;;;1554486;74;702;-71
2021/11/04 01:22:07;;;;;;;;;;;23.10;47.10;;;;;;1565984;75;811;-71
2021/11/04 01:24:09;;;;;;;;;;;23.20;47.30;;;;;;1555303;75;726;-71
2021/11/04 01:26:11;;;;;;;;;;;23.10;47.20;;;;;;1569481;75;1123;-70
2021/11/04 01:28:15;;;;;;;;;;;23.10;47.10;;;;;;1573962;74;1943;-72
2021/11/04 01:30:17;;;;;;;;;;;23.10;47.30;;;;;;1573651;75;707;-71
2021/11/04 01:32:19;;;;;;;;;;;23.00;47.10;;;;;;1572306;75;712;-73
2021/11/04 01:34:21;;;;;;;;;;;23.10;47.20;;;;;;1553737;75;692;-73
2021/11/04 01:36:23;;;;;;;;;;;23.10;47.10;;;;;;1569424;75;834;-75
2021/11/04 01:38:25;;;;;;;;;;;23.10;47.10;;;;;;1564122;75;813;-71
2021/11/04 01:40:27;;;;;;;;;;;23.10;47.20;;;;;;1573094;75;735;-73
2021/11/04 01:42:28;;;;;;;;;;;23.10;47.20;;;;;;1557355;75;717;-73
2021/11/04 01:44:30;;;;;;;;;;;23.10;47.10;;;;;;1562475;75;1089;-72
2021/11/04 01:46:32;;;;;;;;;;;23.10;47.20;;;;;;1565541;75;828;-73
2021/11/04 01:48:34;;;;;;;;;;;23.00;47.10;;;;;;1547901;75;1940;-72
2021/11/04 01:50:36;;;;;;;;;;;23.10;47.20;;;;;;1567694;75;780;-74
2021/11/04 01:52:38;;;;;;;;;;;23.00;47.00;;;;;;1566599;75;706;-75
2021/11/04 01:54:40;;;;;;;;;;;23.00;47.00;;;;;;1545076;75;1146;-77
2021/11/04 01:56:42;;;;;;;;;;;23.10;47.10;;;;;;1563383;75;740;-74
2021/11/04 01:58:44;;;;;;;;;;;23.10;47.10;;;;;;1572746;75;676;-74
2021/11/04 02:00:46;;;;;;;;;;;23.00;47.00;;;;;;1566637;75;758;-77
2021/11/04 02:03:06;;;;;;;;;;;23.10;47.10;;;;;;1572838;75;776;-73
2021/11/04 02:05:08;;;;;;;;;;;23.10;47.10;;;;;;1558441;75;1185;-73
2021/11/04 02:07:13;;;;;;;;;;;23.00;47.00;;;;;;1569096;75;738;-73
2021/11/04 02:09:16;;;;;;;;;;;23.00;47.00;;;;;;1564731;75;1907;-74
2021/11/04 02:11:19;;;;;;;;;;;23.00;46.90;;;;;;1549174;75;2073;-72
2021/11/04 02:13:29;;;;;;;;;;;23.00;46.90;;;;;;1569149;75;771;-71
2021/11/04 02:15:30;;;;;;;;;;;23.10;47.10;;;;;;1551791;75;1468;-69
2021/11/04 02:17:32;;;;;;;;;;;23.10;47.10;;;;;;1562729;75;795;-70
2021/11/04 02:19:36;;;;;;;;;;;23.10;47.20;;;;;;1564840;75;816;-70
2021/11/04 02:21:42;;;;;;;;;;;23.10;47.10;;;;;;1560465;75;821;-68
2021/11/04 02:23:55;;;;;;;;;;;23.10;47.20;;;;;;1542243;75;1091;-69
2021/11/04 02:25:57;;;;;;;;;;;23.20;47.30;;;;;;1556495;71;3164;-71
2021/11/04 02:28:00;;;;;;;;;;;23.20;47.10;;;;;;1559200;75;798;-70
2021/11/04 02:30:01;;;;;;;;;;;23.20;47.10;;;;;;1562056;76;1923;-69
2021/11/04 02:32:04;;;;;;;;;;;23.20;47.10;;;;;;1562065;76;713;-69
2021/11/04 02:34:06;;;;;;;;;;;23.20;47.10;;;;;;1558029;76;829;-68
2021/11/04 02:36:07;;;;;;;;;;;23.20;47.20;;;;;;1537052;76;1216;-69
2021/11/04 02:38:09;;;;;;;;;;;23.20;47.20;;;;;;1523416;77;713;-69
2021/11/04 02:40:11;;;;;;;;;;;23.20;47.20;;;;;;1523211;78;699;-69
2021/11/04 02:42:14;;;;;;;;;;;23.10;47.10;;;;;;1523412;76;730;-69
2021/11/04 02:44:15;;;;;;;;;;;23.10;47.10;;;;;;1524414;76;802;-67
2021/11/04 02:46:17;;;;;;;;;;;23.20;47.20;;;;;;1523501;76;1114;-70
2021/11/04 02:48:19;;;;;;;;;;;23.10;47.20;;;;;;1526855;77;722;-70
2021/11/04 02:50:21;;;;;;;;;;;23.10;47.10;;;;;;1520277;77;1926;-71
2021/11/04 02:52:23;;;;;;;;;;;23.10;47.10;;;;;;1522672;76;784;-71
2021/11/04 02:54:25;;;;;;;;;;;23.10;47.10;;;;;;1518307;77;774;-70
2021/11/04 02:56:29;;;;;;;;;;;23.10;47.10;;;;;;1526858;76;1095;-70
2021/11/04 02:58:31;;;;;;;;;;;23.10;47.10;;;;;;1506509;76;1168;-71
2021/11/04 03:00:33;;;;;;;;;;;23.10;47.20;;;;;;1533723;77;804;-70
2021/11/04 03:02:35;;;;;;;;;;;23.00;47.10;;;;;;1530567;76;697;-69
2021/11/04 03:04:36;;;;;;;;;;;23.10;47.20;;;;;;1517506;76;636;-70
2021/11/04 03:06:38;;;;;;;;;;;23.00;47.10;;;;;;1520166;77;1116;-71
2021/11/04 03:08:40;;;;;;;;;;;23.00;47.10;;;;;;1520062;78;1925;-71
2021/11/04 03:10:42;;;;;;;;;;;23.10;47.20;;;;;;1512489;76;756;-66
2021/11/04 03:12:44;;;;;;;;;;;23.00;47.10;;;;;;1518160;78;824;-70
2021/11/04 03:14:46;;;;;;;;;;;23.00;47.10;;;;;;1522890;76;1143;-70
2021/11/04 03:16:49;;;;;;;;;;;23.00;47.10;;;;;;1521523;76;770;-70
2021/11/04 03:18:52;;;;;;;;;;;23.00;47.10;;;;;;1526194;76;814;-71
2021/11/04 03:20:54;;;;;;;;;;;23.10;47.20;;;;;;1526814;76;780;-68
2021/11/04 03:22:56;;;;;;;;;;;23.00;47.00;;;;;;1532420;76;685;-69
2021/11/04 03:24:58;;;;;;;;;;;23.10;47.10;;;;;;1527998;76;1149;-69
2021/11/04 03:27:00;;;;;;;;;;;23.10;47.10;;;;;;1528365;76;798;-70
2021/11/04 03:29:03;;;;;;;;;;;23.10;47.10;;;;;;1526592;76;1945;-69
2021/11/04 03:31:05;;;;;;;;;;;23.10;47.20;;;;;;1517254;78;683;-70
2021/11/04 03:33:08;;;;;;;;;;;23.10;47.20;;;;;;1519470;76;736;-70
2021/11/04 03:35:10;;;;;;;;;;;23.20;47.10;;;;;;1522748;77;1231;-69
2021/11/04 03:37:13;;;;;;;;;;;23.30;47.10;;;;;;1525638;78;809;-70
2021/11/04 03:39:15;;;;;;;;;;;23.40;47.00;;;;;;1526536;76;731;-69
2021/11/04 03:41:18;;;;;;;;;;;23.40;46.80;;;;;;1492369;79;753;-70
2021/11/04 03:43:20;;;;;;;;;;;23.50;46.80;;;;;;1524394;76;1192;-69
2021/11/04 03:45:22;;;;;;;;;;;23.50;46.80;;;;;;1526599;76;1163;-69
2021/11/04 03:47:24;;;;;;;;;;;23.50;46.80;;;;;;1526805;76;775;-69
2021/11/04 03:49:28;;;;;;;;;;;23.50;46.90;;;;;;1526809;76;1944;-69
2021/11/04 03:51:30;;;;;;;;;;;23.50;47.00;;;;;;1525764;76;1152;-70
2021/11/04 03:53:32;;;;;;;;;;;23.50;47.10;;;;;;1499379;78;842;-70
2021/11/04 03:55:34;;;;;;;;;;;23.40;47.00;;;;;;1524383;76;1147;-70
2021/11/04 03:57:39;;;;;;;;;;;23.40;47.10;;;;;;1523798;78;743;-71
2021/11/04 03:59:40;;;;;;;;;;;23.30;47.30;;;;;;1527598;78;1723;-70
2021/11/04 04:01:42;;;;;;;;;;;23.30;47.30;;;;;;1527874;78;820;-70
2021/11/04 04:03:43;;;;;;;;;;;23.30;47.40;;;;;;1527393;78;734;-69
2021/11/04 04:05:45;;;;;;;;;;;23.30;47.50;;;;;;1522838;77;1162;-68
2021/11/04 04:07:47;;;;;;;;;;;23.20;47.60;;;;;;1496409;78;1192;-70
2021/11/04 04:09:49;;;;;;;;;;;23.20;47.60;;;;;;1499281;79;1954;-72
2021/11/04 04:11:51;;;;;;;;;;;23.20;47.60;;;;;;1526328;78;758;-69
2021/11/04 04:13:55;;;;;;;;;;;23.20;47.60;;;;;;1527623;78;695;-70
2021/11/04 04:15:57;;;;;;;;;;;23.20;47.60;;;;;;1527833;76;1195;-70
2021/11/04 04:17:59;;;;;;;;;;;23.30;47.60;;;;;;1526750;78;733;-70
2021/11/04 04:20:01;;;;;;;;;;;23.20;47.50;;;;;;1525271;78;799;-71
2021/11/04 04:22:03;;;;;;;;;;;23.30;47.60;;;;;;1527881;78;741;-70
2021/11/04 04:24:05;;;;;;;;;;;23.30;47.60;;;;;;1528161;78;778;-71
2021/11/04 04:26:07;;;;;;;;;;;23.30;47.50;;;;;;1528591;76;1134;-70
2021/11/04 04:28:09;;;;;;;;;;;23.20;47.60;;;;;;1527061;76;724;-67
2021/11/04 04:30:11;;;;;;;;;;;23.20;47.50;;;;;;1532495;76;1932;-72
2021/11/04 04:32:13;;;;;;;;;;;23.20;47.50;;;;;;1525637;76;756;-69
2021/11/04 04:34:15;;;;;;;;;;;23.30;47.60;;;;;;1522990;78;795;-71
2021/11/04 04:36:16;;;;;;;;;;;23.30;47.60;;;;;;1522179;76;1156;-71
2021/11/04 04:38:18;;;;;;;;;;;23.20;47.30;;;;;;1522957;78;714;-70
2021/11/04 04:40:20;;;;;;;;;;;23.20;47.30;;;;;;1526685;76;735;-71
2021/11/04 04:42:22;;;;;;;;;;;23.30;47.30;;;;;;1526026;78;714;-72
2021/11/04 04:44:24;;;;;;;;;;;23.30;47.20;;;;;;1529466;78;772;-69
2021/11/04 04:46:26;;;;;;;;;;;23.40;47.00;;;;;;1528582;76;1121;-70
2021/11/04 04:48:28;;;;;;;;;;;23.50;47.00;;;;;;1529755;78;727;-70
2021/11/04 04:50:30;;;;;;;;;;;23.60;46.80;;;;;;1529656;78;1944;-70
2021/11/04 04:52:32;;;;;;;;;;;23.50;46.60;;;;;;1528618;78;714;-71
2021/11/04 04:54:34;;;;;;;;;;;23.70;46.50;;;;;;1527270;78;710;-70
2021/11/04 04:56:35;;;;;;;;;;;23.80;46.30;;;;;;1524695;77;1091;-70
2021/11/04 04:58:38;;;;;;;;;;;23.80;46.10;;;;;;1517270;78;790;-70
2021/11/04 05:00:39;;;;;;;;;;;23.80;46.00;;;;;;1526394;78;728;-70
2021/11/04 05:02:42;;;;;;;;;;;23.80;45.90;;;;;;1526817;76;815;-71
2021/11/04 05:04:44;;;;;;;;;;;23.70;45.90;;;;;;1525698;76;1177;-70
2021/11/04 05:06:46;;;;;;;;;;;23.90;46.00;;;;;;1525820;76;786;-71
2021/11/04 05:08:47;;;;;;;;;;;23.80;45.80;;;;;;1524914;78;738;-68
2021/11/04 05:10:49;;;;;;;;;;;23.80;45.90;;;;;;1524530;76;1932;-69
2021/11/04 05:12:51;;;;;;;;;;;23.80;45.90;;;;;;1525395;76;741;-69
2021/11/04 05:14:53;;;;;;;;;;;23.80;46.00;;;;;;1525783;76;1168;-70
2021/11/04 05:16:55;;;;;;;;;;;23.70;45.90;;;;;;1526876;76;710;-69
2021/11/04 05:18:57;;;;;;;;;;;23.80;45.90;;;;;;1528001;77;686;-69
2021/11/04 05:20:59;;;;;;;;;;;23.80;45.90;;;;;;1526667;77;802;-69
2021/11/04 05:23:01;;;;;;;;;;;23.90;45.90;;;;;;1522660;78;702;-71
2021/11/04 05:25:02;;;;;;;;;;;23.80;45.70;;;;;;1524621;77;1141;-67
2021/11/04 05:27:05;;;;;;;;;;;23.90;45.70;;;;;;1526659;77;811;-69
2021/11/04 05:29:07;;;;;;;;;;;23.90;45.70;;;;;;1521333;78;720;-69
2021/11/04 05:31:09;;;;;;;;;;;23.80;45.70;;;;;;1526445;76;1948;-70
2021/11/04 05:33:11;;;;;;;;;;;23.90;45.80;;;;;;1528645;76;725;-70
2021/11/04 05:35:13;;;;;;;;;;;23.80;45.60;;;;;;1523950;77;1131;-71
2021/11/04 05:37:15;;;;;;;;;;;23.90;45.60;;;;;;1526847;77;749;-70
2021/11/04 05:39:16;;;;;;;;;;;23.90;45.50;;;;;;1524619;78;820;-69
2021/11/04 05:41:18;;;;;;;;;;;23.90;45.40;;;;;;1527423;78;729;-71
2021/11/04 05:43:20;;;;;;;;;;;23.90;45.40;;;;;;1526459;76;734;-71
2021/11/04 05:45:22;;;;;;;;;;;23.90;45.40;;;;;;1522307;77;1202;-72
2021/11/04 05:47:24;;;;;;;;;;;23.90;45.40;;;;;;1526482;76;826;-70
2021/11/04 05:49:26;;;;;;;;;;;23.80;45.40;;;;;;1527444;78;719;-70
2021/11/04 05:51:28;;;;;;;;;;;23.70;45.50;;;;;;1526690;77;1934;-69
2021/11/04 05:53:30;;;;;;;;;;;23.70;45.70;;;;;;1514466;78;794;-70
2021/11/04 05:55:31;;;;;;;;;;;23.70;45.70;;;;;;1526763;77;1204;-69
2021/11/04 05:57:33;;;;;;;;;;;23.70;45.70;;;;;;1515047;78;730;-70
2021/11/04 05:59:35;;;;;;;;;;;23.80;45.50;;;;;;1524281;78;648;-70
2021/11/04 06:01:37;;;;;;;;;;;23.90;45.50;;;;;;1523112;77;739;-71
2021/11/04 06:03:39;;;;;;;;;;;23.90;45.30;;;;;;1518525;78;768;-69
2021/11/04 06:05:41;;;;;;;;;;;23.90;45.20;;;;;;1526731;76;1174;-73
2021/11/04 06:07:43;;;;;;;;;;;23.90;45.20;;;;;;1515335;78;734;-72
2021/11/04 06:09:45;;;;;;;;;;;23.90;45.30;;;;;;1526816;76;1933;-69
2021/11/04 06:11:47;;;;;;;;;;;23.90;45.30;;;;;;1525392;76;708;-68
2021/11/04 06:13:48;;;;;;;;;;;23.90;45.30;;;;;;1520549;78;789;-70
2021/11/04 06:15:50;;;;;;;;;;;23.90;45.20;;;;;;1526856;76;1161;-71
2021/11/04 06:17:52;;;;;;;;;;;23.90;45.20;;;;;;1527349;78;793;-69
2021/11/04 06:19:54;;;;;;;;;;;23.80;45.50;;;;;;1525898;78;811;-72
2021/11/04 06:21:56;;;;;;;;;;;23.80;45.50;;;;;;1525988;76;687;-71
2021/11/04 06:23:58;;;;;;;;;;;23.90;45.60;;;;;;1525580;76;787;-69
2021/11/04 06:26:00;;;;;;;;;;;23.90;45.50;;;;;;1526652;76;1146;-72
2021/11/04 06:28:01;;;;;;;;;;;23.90;45.50;;;;;;1530703;77;794;-70
2021/11/04 06:30:04;;;;;;;;;;;23.90;45.50;;;;;;1526646;76;1948;-69
2021/11/04 06:32:06;;;;;;;;;;;23.80;45.40;;;;;;1524464;77;718;-69
2021/11/04 06:34:08;;;;;;;;;;;23.80;45.60;;;;;;1527415;78;778;-70
2021/11/04 06:36:10;;;;;;;;;;;23.90;45.50;;;;;;1526599;76;1166;-69
2021/11/04 06:38:12;;;;;;;;;;;23.90;45.30;;;;;;1524098;78;825;-69
2021/11/04 06:40:14;;;;;;;;;;;23.90;45.30;;;;;;1526771;76;693;-69
2021/11/04 06:42:16;;;;;;;;;;;23.90;45.30;;;;;;1527591;76;828;-69
2021/11/04 06:44:18;;;;;;;;;;;23.80;45.30;;;;;;1522425;78;806;-70
2021/11/04 06:46:23;;;;;;;;;;;23.70;45.40;;;;;;1526798;76;1137;-71
2021/11/04 06:48:42;;;;;;;;;;;23.70;45.50;;;;;;1527115;78;767;-69
2021/11/04 06:50:44;;;;;;;;;;;23.60;45.40;;;;;;1526375;76;1917;-71
2021/11/04 06:52:49;;;;;;;;;;;23.60;45.50;;;;;;1524888;78;799;-70
2021/11/04 06:54:52;;;;;;;;;;;23.50;45.50;;;;;;1528015;76;1145;-70
2021/11/04 06:56:54;;;;;;;;;;;23.60;45.50;;;;;;1523192;78;671;-70
2021/11/04 06:58:56;;;;;;;;;;;23.60;45.60;;;;;;1523064;78;744;-70
2021/11/04 07:01:00;;;;;;;;;;;23.60;45.60;;;;;;1525795;77;771;-69
2021/11/04 07:03:07;;;;;;;;;;;23.50;45.60;;;;;;1526172;77;782;-66
2021/11/04 07:05:12;;;;;;;;;;;23.50;45.60;;;;;;1514258;76;1707;-70
2021/11/04 07:07:13;;;;;;;;;;;23.50;45.60;;;;;;1525382;76;1608;-69
2021/11/04 07:09:15;;;;;;;;;;;23.50;45.60;;;;;;1516551;78;809;-69
2021/11/04 07:11:17;;;;;;;;;;;23.50;45.60;;;;;;1525643;76;1938;-69
2021/11/04 07:13:19;;;;;;;;;;;23.50;45.50;;;;;;1523167;76;805;-69
2021/11/04 07:15:21;;;;;;;;;;;23.50;45.50;;;;;;1513284;77;1155;-69
2021/11/04 07:17:23;;;;;;;;;;;23.40;45.40;;;;;;1522426;78;845;-69
2021/11/04 07:19:25;;;;;;;;;;;23.50;45.50;;;;;;1529333;78;722;-69
2021/11/04 07:21:43;;;;;;;;;;;23.50;45.50;;;;;;1520067;78;749;-68
2021/11/04 07:23:46;;;;;;;;;;;23.40;45.40;;;;;;1523274;78;676;-70
2021/11/04 07:25:48;;;;;;;;;;;23.40;45.40;;;;;;1525258;76;1676;-72
2021/11/04 07:27:52;;;;;;;;;;;23.50;45.50;;;;;;1520522;78;801;-69
2021/11/04 07:29:54;;;;;;;;;;;23.50;45.50;;;;;;1522809;78;1856;-69
2021/11/04 07:31:55;;;;;;;;;;;23.50;45.50;;;;;;1529482;78;1948;-69
2021/11/04 07:33:57;;;;;;;;;;;23.50;45.40;;;;;;1529168;78;793;-69
2021/11/04 07:35:59;;;;;;;;;;;23.60;45.30;;;;;;1527130;76;1172;-69
2021/11/04 07:38:03;;;;;;;;;;;23.60;45.20;;;;;;1524140;76;739;-69
2021/11/04 07:40:05;;;;;;;;;;;23.60;45.20;;;;;;1524980;76;725;-69
2021/11/04 07:42:08;;;;;;;;;;;23.70;45.20;;;;;;1523123;76;732;-70
2021/11/04 07:44:10;;;;;;;;;;;23.70;45.00;;;;;;1525015;78;1082;-69
2021/11/04 07:46:12;;;;;;;;;;;23.70;45.00;;;;;;1526538;76;1146;-70
2021/11/04 07:48:14;;;;;;;;;;;23.70;44.90;;;;;;1529637;78;738;-70
2021/11/04 07:50:18;;;;;;;;;;;23.70;45.00;;;;;;1525171;78;740;-67
2021/11/04 07:52:20;;;;;;;;;;;23.70;44.80;;;;;;1526256;78;1889;-69
2021/11/04 07:54:22;;;;;;;;;;;23.70;44.70;;;;;;1528581;77;757;-70
2021/11/04 07:56:24;;;;;;;;;;;23.80;44.70;;;;;;1526994;76;1134;-70
2021/11/04 07:58:26;;;;;;;;;;;23.70;44.70;;;;;;1529400;78;669;-68
2021/11/04 08:00:29;;;;;;;;;;;23.80;44.80;;;;;;1523643;78;712;-70
2021/11/04 08:02:31;;;;;;;;;;;23.70;44.80;;;;;;1523345;78;772;-67
2021/11/04 08:04:33;;;;;;;;;;;23.80;44.70;;;;;;1527904;78;742;-69
2021/11/04 08:06:35;;;;;;;;;;;23.80;44.60;;;;;;1526659;76;1094;-69
2021/11/04 08:08:37;;;;;;;;;;;23.70;44.70;;;;;;1526389;78;738;-71
2021/11/04 08:10:39;;;;;;;;;;;23.70;44.70;;;;;;1526585;78;1922;-69
2021/11/04 08:12:41;;;;;;;;;;;23.80;44.70;;;;;;1527451;78;719;-69
2021/11/04 08:14:43;;;;;;;;;;;23.80;44.70;;;;;;1525749;78;686;-69
2021/11/04 08:16:44;;;;;;;;;;;23.80;44.70;;;;;;1527247;78;756;-68
2021/11/04 08:18:46;;;;;;;;;;;23.80;44.70;;;;;;1528386;78;783;-68
2021/11/04 08:20:48;;;;;;;;;;;23.70;44.80;;;;;;1530196;78;731;-68
2021/11/04 08:22:50;;;;;;;;;;;23.70;44.80;;;;;;1525958;78;878;-68
2021/11/04 08:24:52;;;;;;;;;;;23.60;44.70;;;;;;1522541;78;1142;-69
2021/11/04 08:26:54;;;;;;;;;;;23.70;45.00;;;;;;1531589;72;2117;-68
2021/11/04 08:28:56;;;;;;;;;;;23.60;44.90;;;;;;1544311;75;829;-67
2021/11/04 08:30:58;;;;;;;;;;;23.60;44.90;;;;;;1542048;76;1942;-67
2021/11/04 08:32:59;;;;;;;;;;;23.60;45.00;;;;;;1545539;75;705;-67
2021/11/04 08:35:01;;;;;;;;;;;23.60;45.10;;;;;;1538595;75;698;-65
2021/11/04 08:37:03;;;;;;;;;;;23.60;45.40;;;;;;1542416;76;1178;-68
2021/11/04 08:39:05;;;;;;;;;;;23.60;45.70;;;;;;1547162;76;674;-67
2021/11/04 08:41:07;;;;;;;;;;;23.60;45.70;;;;;;1536052;76;668;-70
2021/11/04 08:43:09;;;;;;;;;;;23.60;45.60;;;;;;1540603;76;704;-68
2021/11/04 08:45:11;;;;;;;;;;;23.50;45.70;;;;;;1539925;76;729;-75
2021/11/04 08:47:13;;;;;;;;;;;23.50;45.30;;;;;;1541703;76;1117;-72
2021/11/04 08:49:15;;;;;;;;;;;23.40;44.60;;;;;;1551699;76;718;-73
2021/11/04 08:51:17;;;;;;;;;;;23.30;44.20;;;;;;1535281;76;1952;-73
2021/11/04 08:53:18;;;;;;;;;;;23.40;43.70;;;;;;1550617;76;695;-72
2021/11/04 08:55:20;;;;;;;;;;;23.30;43.40;;;;;;1536801;76;711;-73
2021/11/04 08:57:22;;;;;;;;;;;23.20;43.10;;;;;;1551410;76;1067;-73
2021/11/04 08:59:24;;;;;;;;;;;23.20;42.80;;;;;;1551550;76;712;-73
2021/11/04 09:01:27;;;;;;;;;;;23.10;42.40;;;;;;1555674;76;725;-72
2021/11/04 09:03:29;;;;;;;;;;;23.00;42.10;;;;;;1544646;76;683;-70
2021/11/04 09:05:31;;;;;;;;;;;23.00;41.70;;;;;;1544738;76;785;-70
2021/11/04 09:07:33;;;;;;;;;;;23.00;41.60;;;;;;1548904;75;1176;-69
2021/11/04 09:09:35;;;;;;;;;;;23.00;41.40;;;;;;1536300;76;668;-72
2021/11/04 09:11:36;;;;;;;;;;;22.90;41.30;;;;;;1545427;76;1947;-69
2021/11/04 09:13:38;;;;;;;;;;;22.80;41.00;;;;;;1547001;76;699;-71
2021/11/04 09:15:40;;;;;;;;;;;22.80;40.80;;;;;;1549463;76;1143;-71
2021/11/04 09:17:42;;;;;;;;;;;22.80;40.70;;;;;;1547775;76;736;-72
2021/11/04 09:19:44;;;;;;;;;;;22.70;40.50;;;;;;1543175;76;701;-72
2021/11/04 09:21:46;;;;;;;;;;;22.80;40.40;;;;;;1553418;76;688;-70
2021/11/04 09:23:49;;;;;;;;;;;22.60;40.30;;;;;;1559922;76;674;-70
2021/11/04 09:25:51;;;;;;;;;;;22.60;40.20;;;;;;1559243;76;1161;-70
2021/11/04 09:27:56;;;;;;;;;;;22.60;40.00;;;;;;1555798;75;779;-70
2021/11/04 09:29:59;;;;;;;;;;;22.60;40.00;;;;;;1559768;76;641;-72
2021/11/04 09:32:01;;;;;;;;;;;22.50;39.80;;;;;;1560391;76;1927;-72
2021/11/04 09:34:03;;;;;;;;;;;22.50;40.00;;;;;;1557243;74;633;-71
2021/11/04 09:36:05;;;;;;;;;;;22.40;39.90;;;;;;1560967;75;1156;-71
2021/11/04 09:38:06;;;;;;;;;;;22.50;39.90;;;;;;1555902;76;729;-72
2021/11/04 09:40:09;;;;;;;;;;;22.50;39.90;;;;;;1560240;74;719;-73
2021/11/04 09:42:10;;;;;;;;;;;22.40;39.60;;;;;;1557671;75;748;-71
2021/11/04 09:44:12;;;;;;;;;;;22.30;39.50;;;;;;1558868;76;730;-71
2021/11/04 09:46:15;;;;;;;;;;;22.40;39.40;;;;;;1558853;74;1187;-70
2021/11/04 09:48:17;;;;;;;;;;;22.30;39.40;;;;;;1554175;76;742;-70
2021/11/04 09:50:19;;;;;;;;;;;22.30;39.40;;;;;;1560509;75;658;-71
2021/11/04 09:52:22;;;;;;;;;;;22.30;39.30;;;;;;1550349;75;1940;-70
2021/11/04 09:54:24;;;;;;;;;;;22.20;39.20;;;;;;1548834;75;1043;-71
2021/11/04 09:56:26;;;;;;;;;;;22.20;39.20;;;;;;1556661;76;1123;-70
2021/11/04 09:58:29;;;;;;;;;;;22.20;39.10;;;;;;1561952;75;735;-71
2021/11/04 10:00:32;;;;;;;;;;;22.10;39.00;;;;;;1559991;76;902;-72
2021/11/04 10:02:34;;;;;;;;;;;22.10;39.10;;;;;;1546670;76;912;-71
2021/11/04 10:04:38;;;;;;;;;;;22.10;39.00;;;;;;1558437;76;740;-71
2021/11/04 10:06:40;;;;;;;;;;;22.10;38.90;;;;;;1557454;74;1453;-71
2021/11/04 10:08:42;;;;;;;;;;;22.00;38.70;;;;;;1558905;76;734;-72
2021/11/04 10:10:44;;;;;;;;;;;22.00;38.70;;;;;;1557285;75;731;-71
2021/11/04 10:12:56;;;;;;;;;;;22.00;38.70;;;;;;1551126;75;1924;-72
2021/11/04 10:15:00;;;;;;;;;;;22.00;38.80;;;;;;1560967;75;1004;-71
2021/11/04 10:17:02;;;;;;;;;;;22.00;38.30;;;;;;1559969;75;2145;-68
2021/11/04 10:19:08;;;;;;;;;;;22.00;38.70;;;;;;1554988;76;667;-69
2021/11/04 10:21:10;;;;;;;;;;;22.00;37.90;;;;;;1551671;76;732;-70
2021/11/04 10:23:12;;;;;;;;;;;21.90;38.40;;;;;;1557430;76;772;-68
2021/11/04 10:25:21;;;;;;;;;;;21.90;36.60;;;;;;1557200;76;815;-70
2021/11/04 10:27:31;;;;;;;;;;;21.80;37.10;;;;;;1555411;75;1097;-68
2021/11/04 10:29:37;;;;;;;;;;;21.80;37.70;;;;;;1556981;74;948;-66
2021/11/04 10:31:43;;;;;;;;;;;21.70;38.00;;;;;;1559601;75;1909;-67
2021/11/04 10:33:46;;;;;;;;;;;21.60;38.30;;;;;;1554575;75;718;-66
2021/11/04 10:35:52;;;;;;;;;;;21.70;38.90;;;;;;1561919;74;1190;-67
2021/11/04 10:37:54;;;;;;;;;;;21.70;39.20;;;;;;1559525;75;1836;-68
2021/11/04 10:40:00;;;;;;;;;;;21.70;39.50;;;;;;1559457;75;794;-68
2021/11/04 10:42:01;;;;;;;;;;;21.90;39.90;;;;;;1560140;75;1526;-69
2021/11/04 10:44:04;;;;;;;;;;;21.70;39.90;;;;;;1562425;75;686;-69
2021/11/04 10:46:06;;;;;;;;;;;21.80;40.10;;;;;;1558236;75;1174;-69
2021/11/04 10:48:18;;;;;;;;;;;21.80;40.20;;;;;;1559844;75;691;-69
2021/11/04 10:50:39;;;;;;;;;;;21.80;40.30;;;;;;1555313;74;745;-69
2021/11/04 10:52:40;;;;;;;;;;;21.90;40.50;;;;;;1562424;75;1922;-70
2021/11/04 10:54:46;;;;;;;;;;;21.90;40.60;;;;;;1550349;75;692;-69
2021/11/04 10:56:49;;;;;;;;;;;21.80;40.60;;;;;;1555990;74;1151;-69
2021/11/04 10:58:53;;;;;;;;;;;21.80;40.70;;;;;;1553446;75;1030;-69
2021/11/04 11:00:54;;;;;;;;;;;21.90;40.80;;;;;;1558166;76;701;-70
2021/11/04 11:03:07;;;;;;;;;;;21.90;40.80;;;;;;1552401;76;714;-70
2021/11/04 11:05:11;;;;;;;;;;;21.90;40.90;;;;;;1556924;75;709;-69
2021/11/04 11:07:12;;;;;;;;;;;21.80;40.70;;;;;;1558043;75;2085;-70
2021/11/04 11:09:16;;;;;;;;;;;21.90;40.90;;;;;;1560159;75;776;-70
2021/11/04 11:11:20;;;;;;;;;;;21.90;41.00;;;;;;1559003;76;1490;-70
2021/11/04 11:13:22;;;;;;;;;;;21.90;41.00;;;;;;1559455;74;1939;-68
2021/11/04 11:15:24;;;;;;;;;;;21.90;41.00;;;;;;1559505;76;704;-69
2021/11/04 11:17:26;;;;;;;;;;;21.90;41.10;;;;;;1557540;75;1081;-69
2021/11/04 11:19:29;;;;;;;;;;;21.90;41.10;;;;;;1558858;75;801;-69
2021/11/04 11:21:33;;;;;;;;;;;21.90;41.10;;;;;;1557514;75;769;-69
2021/11/04 11:23:35;;;;;;;;;;;21.90;41.10;;;;;;1558170;75;695;-70
2021/11/04 11:25:37;;;;;;;;;;;22.00;41.10;;;;;;1552854;75;1089;-67
2021/11/04 11:27:39;;;;;;;;;;;22.00;41.10;;;;;;1557550;75;788;-69
2021/11/04 11:29:42;;;;;;;;;;;21.90;41.10;;;;;;1556816;76;708;-69
2021/11/04 11:31:47;;;;;;;;;;;21.90;41.10;;;;;;1560450;76;1927;-71
2021/11/04 11:33:50;;;;;;;;;;;21.90;41.20;;;;;;1560430;76;704;-70
2021/11/04 11:36:12;;;;;;;;;;;22.10;41.30;;;;;;1535592;76;1169;-70
2021/11/04 11:38:14;;;;;;;;;;;22.00;41.30;;;;;;1558364;74;708;-69
2021/11/04 11:40:16;;;;;;;;;;;21.90;41.30;;;;;;1558218;75;727;-67
2021/11/04 11:42:25;;;;;;;;;;;22.00;41.30;;;;;;1553273;75;651;-70
2021/11/04 11:44:44;;;;;;;;;;;21.90;41.30;;;;;;1559461;75;917;-69
2021/11/04 11:47:02;;;;;;;;;;;21.90;41.40;;;;;;1561895;75;1217;-69
2021/11/04 11:49:12;;;;;;;;;;;22.00;41.30;;;;;;1558223;75;714;-68
2021/11/04 11:51:14;;;;;;;;;;;21.90;41.10;;;;;;1557923;75;740;-69
2021/11/04 11:53:26;;;;;;;;;;;21.90;41.10;;;;;;1527870;77;1928;-69
2021/11/04 11:55:39;;;;;;;;;;;21.90;41.10;;;;;;1557534;76;736;-71
2021/11/04 11:57:41;;;;;;;;;;;21.90;41.10;;;;;;1560121;75;779;-71
2021/11/04 11:59:50;;;;;;;;;;;21.90;41.30;;;;;;1563938;76;720;-71
2021/11/04 12:01:52;;;;;;;;;;;21.90;41.30;;;;;;1560690;76;828;-71
2021/11/04 12:04:00;;;;;;;;;;;22.00;41.40;;;;;;1556952;75;661;-71
2021/11/04 12:06:01;;;;;;;;;;;22.00;41.40;;;;;;1557044;74;1629;-72
2021/11/04 12:08:10;;;;;;;;;;;22.00;41.40;;;;;;1560519;75;728;-68
2021/11/04 12:10:32;;;;;;;;;;;22.00;41.40;;;;;;1557354;74;748;-70
2021/11/04 12:12:41;;;;;;;;;;;22.00;41.50;;;;;;1543884;74;1944;-70
2021/11/04 12:14:50;;;;;;;;;;;22.00;41.60;;;;;;1552652;74;637;-69
2021/11/04 12:17:03;;;;;;;;;;;21.90;41.60;;;;;;1560218;75;1121;-70
2021/11/04 12:19:06;;;;;;;;;;;22.00;41.60;;;;;;1559579;75;749;-68
2021/11/04 12:21:08;;;;;;;;;;;22.00;41.60;;;;;;1557335;74;789;-68
2021/11/04 12:23:09;;;;;;;;;;;22.00;41.50;;;;;;1557261;76;765;-67
2021/11/04 12:25:12;;;;;;;;;;;22.00;41.60;;;;;;1543304;76;695;-68
2021/11/04 12:27:16;;;;;;;;;;;22.00;41.60;;;;;;1567949;75;1142;-67
2021/11/04 12:29:19;;;;;;;;;;;21.90;41.50;;;;;;1554598;76;795;-67
2021/11/04 12:31:22;;;;;;;;;;;21.90;41.50;;;;;;1557564;75;1061;-69